Time;durP1;ratioP1;P1;durP2;ratioP2;P2;SDS_P1;SDS_P2;PMS_P1;PMS_P2;Temp;Humidity;BMP_temperature;BMP_pressure;BME280_temperature;BME280_humidity;BME280_pressure;Samples;Min_cycle;Max_cycle;Signal;HPM_P1;HPM_P2
2022/10/18 00:01:44;;;;;;;17.73;14.43;;;;;;;17.10;99.04;101773.03;5000567;28;20209;-83
2022/10/18 00:04:11;;;;;;;18.20;14.83;;;;;;;17.09;99.17;101779.41;5004513;28;20547;-83
2022/10/18 00:06:39;;;;;;;17.90;14.93;;;;;;;17.08;99.29;101783.06;4991888;28;21228;-83
2022/10/18 00:09:05;;;;;;;16.57;14.83;;;;;;;17.06;99.23;101783.16;4992577;28;20211;-84
2022/10/18 00:11:32;;;;;;;15.93;14.07;;;;;;;17.04;99.40;101787.78;4991343;28;20215;-83
2022/10/18 00:13:58;;;;;;;16.17;14.10;;;;;;;17.03;99.40;101788.75;4996320;28;20209;-83
2022/10/18 00:16:25;;;;;;;16.20;14.07;;;;;;;17.02;99.24;101791.59;4987843;28;20601;-83
2022/10/18 00:18:51;;;;;;;14.97;12.53;;;;;;;16.98;99.36;101786.44;4993056;28;20211;-83
2022/10/18 00:21:19;;;;;;;14.50;12.30;;;;;;;16.96;99.35;101782.97;4992394;28;20223;-83
2022/10/18 00:23:49;;;;;;;14.03;12.43;;;;;;;16.94;99.17;101787.63;4991933;28;20215;-82
2022/10/18 00:26:17;;;;;;;14.57;11.67;;;;;;;16.92;99.30;101786.84;4996241;28;20854;-84
2022/10/18 00:28:44;;;;;;;14.53;11.37;;;;;;;16.90;99.15;101791.50;4991069;28;20213;-82
2022/10/18 00:31:14;;;;;;;13.23;10.90;;;;;;;16.89;99.20;101795.16;4987634;28;20225;-82
2022/10/18 00:33:41;;;;;;;11.20;10.10;;;;;;;16.88;99.13;101795.25;4992043;28;20782;-82
2022/10/18 00:36:08;;;;;;;11.17;10.07;;;;;;;16.85;98.89;101795.47;4986220;28;20214;-83
2022/10/18 00:38:35;;;;;;;13.97;11.57;;;;;;;16.83;98.97;101782.16;4991058;28;20806;-82
2022/10/18 00:41:03;;;;;;;13.07;11.77;;;;;;;16.84;98.93;101788.41;4981427;28;20295;-82
2022/10/18 00:43:30;;;;;;;16.93;12.43;;;;;;;16.81;98.97;101788.59;4982455;28;20215;-82
2022/10/18 00:45:56;;;;;;;16.83;12.53;;;;;;;16.81;98.87;101789.47;4991478;28;20692;-82
2022/10/18 00:48:23;;;;;;;14.93;13.33;;;;;;;16.81;99.11;101788.59;4998380;28;20223;-83
2022/10/18 00:50:51;;;;;;;16.43;13.63;;;;;;;16.82;99.09;101795.72;4993245;28;20238;-84
2022/10/18 00:53:21;;;;;;;15.03;13.33;;;;;;;16.82;99.20;101793.03;4996053;28;20208;-84
2022/10/18 00:55:48;;;;;;;15.90;12.87;;;;;;;16.80;99.06;101800.34;4989127;28;20212;-83
2022/10/18 00:58:18;;;;;;;15.27;13.10;;;;;;;16.80;99.12;101803.03;5000030;28;20218;-82
2022/10/18 01:00:44;;;;;;;17.17;13.17;;;;;;;16.79;99.16;101801.31;4993893;28;20230;-82
2022/10/18 01:03:11;;;;;;;14.87;13.37;;;;;;;16.77;99.08;101800.56;4996063;28;20296;-83
2022/10/18 01:05:42;;;;;;;15.27;13.67;;;;;;;16.75;98.96;101806.03;4991346;28;20234;-83
2022/10/18 01:08:23;;;;;;;17.90;14.10;;;;;;;16.75;98.97;101810.56;4991954;28;20198;-84
2022/10/18 01:11:00;;;;;;;17.67;13.83;;;;;;;16.73;99.09;101802.59;4998761;28;20234;-83
2022/10/18 01:13:41;;;;;;;16.20;13.40;;;;;;;16.72;99.03;101816.16;4993999;28;20217;-84
2022/10/18 01:16:16;;;;;;;15.43;13.73;;;;;;;16.71;98.94;101809.91;4993252;28;20209;-82
2022/10/18 01:18:49;;;;;;;14.87;13.07;;;;;;;16.70;99.16;101812.69;4999103;28;20232;-83
2022/10/18 01:21:24;;;;;;;15.43;13.90;;;;;;;16.67;99.00;101814.63;4985414;28;20258;-83
2022/10/18 01:24:34;;;;;;;16.77;13.90;;;;;;;16.66;98.99;101810.22;4988439;28;20662;-85
2022/10/18 01:27:21;;;;;;;15.23;13.30;;;;;;;16.65;99.03;101804.97;4992390;28;20236;-85
2022/10/18 01:30:02;;;;;;;16.97;13.93;;;;;;;16.64;98.89;101787.13;4990286;28;20236;-83
2022/10/18 01:32:37;;;;;;;16.17;14.40;;;;;;;16.62;99.08;101783.66;4986979;28;20206;-84
2022/10/18 01:35:10;;;;;;;16.43;13.13;;;;;;;16.59;99.27;101779.34;4988798;28;20226;-85
2022/10/18 01:37:38;;;;;;;17.50;14.50;;;;;;;16.59;99.27;101784.72;4991212;28;20211;-84
2022/10/18 01:40:07;;;;;;;15.70;12.83;;;;;;;16.59;99.47;101775.78;4990048;28;20598;-82
2022/10/18 01:42:35;;;;;;;16.87;13.67;;;;;;;16.58;99.49;101774.06;4989156;28;20209;-84
2022/10/18 01:45:02;;;;;;;15.70;14.00;;;;;;;16.56;99.32;101776.00;4988273;28;20225;-83
2022/10/18 01:47:31;;;;;;;16.37;14.20;;;;;;;16.54;99.38;101777.94;4987244;28;20240;-82
2022/10/18 01:49:59;;;;;;;15.47;13.93;;;;;;;16.51;99.33;101776.31;4987615;28;20222;-82
2022/10/18 01:52:26;;;;;;;15.13;13.63;;;;;;;16.48;99.30;101771.13;4988469;28;20221;-82
2022/10/18 01:54:55;;;;;;;16.47;13.60;;;;;;;16.45;99.35;101770.53;4986693;28;20206;-82
2022/10/18 01:57:29;;;;;;;16.47;13.93;;;;;;;16.44;99.30;101774.19;4991099;28;20719;-85
2022/10/18 01:59:59;;;;;;;17.00;13.63;;;;;;;16.43;99.46;101775.16;4993706;28;20617;-82
2022/10/18 02:02:41;;;;;;;16.83;14.03;;;;;;;16.41;99.47;101775.25;4986262;28;20225;-83
2022/10/18 02:05:17;;;;;;;16.37;14.60;;;;;;;16.40;99.60;101778.91;4989590;28;20209;-83
2022/10/18 02:07:51;;;;;;;15.80;14.07;;;;;;;16.39;99.52;101776.31;4996684;28;20220;-83
2022/10/18 02:10:22;;;;;;;17.20;13.33;;;;;;;16.36;99.73;101772.00;5002100;28;20233;-82
2022/10/18 02:12:51;;;;;;;15.57;13.50;;;;;;;16.33;99.65;101773.09;4993166;28;20245;-83
2022/10/18 02:15:23;;;;;;;16.03;13.77;;;;;;;16.30;99.71;101772.47;4989087;28;20207;-83
2022/10/18 02:17:55;;;;;;;15.60;13.10;;;;;;;16.29;99.97;101768.06;4994641;28;20223;-80
2022/10/18 02:20:25;;;;;;;19.87;14.13;;;;;;;16.28;100.00;101764.50;5000006;28;20237;-83
2022/10/18 02:22:54;;;;;;;17.50;13.97;;;;;;;16.27;100.00;101756.53;4998894;28;20213;-82
2022/10/18 02:25:24;;;;;;;17.27;14.47;;;;;;;16.25;100.00;101758.47;4999467;28;20206;-83
2022/10/18 02:27:51;;;;;;;15.60;13.80;;;;;;;16.24;100.00;101752.22;5002759;28;20235;-83
2022/10/18 02:30:18;;;;;;;16.90;13.97;;;;;;;16.23;100.00;101747.81;4998178;28;20264;-84
2022/10/18 02:32:53;;;;;;;18.67;14.03;;;;;;;16.21;100.00;101736.31;4998320;28;20221;-84
2022/10/18 02:35:26;;;;;;;17.53;14.47;;;;;;;16.20;100.00;101736.41;4985617;28;20224;-85
2022/10/18 02:37:54;;;;;;;18.87;14.13;;;;;;;16.17;100.00;101736.63;4998664;28;20564;-84
2022/10/18 02:40:21;;;;;;;15.77;13.70;;;;;;;16.17;100.00;101750.06;4984365;28;20228;-83
2022/10/18 02:42:51;;;;;;;16.97;14.13;;;;;;;16.16;100.00;101742.97;4994797;28;20214;-85
2022/10/18 02:45:17;;;;;;;16.90;14.27;;;;;;;16.15;100.00;101733.19;4987076;28;20213;-84
2022/10/18 02:47:44;;;;;;;18.57;13.83;;;;;;;16.15;100.00;101742.09;4986746;28;20235;-83
2022/10/18 02:50:10;;;;;;;15.00;13.40;;;;;;;16.14;100.00;101739.53;4994383;28;20237;-85
2022/10/18 02:52:38;;;;;;;17.37;14.50;;;;;;;16.15;100.00;101741.25;4990587;28;20763;-84
2022/10/18 02:55:07;;;;;;;19.93;15.07;;;;;;;16.15;100.00;101749.31;4990811;28;20207;-83
2022/10/18 02:57:33;;;;;;;17.07;14.10;;;;;;;16.13;100.00;101744.03;4984988;28;20813;-85
2022/10/18 03:00:00;;;;;;;16.53;13.60;;;;;;;16.12;100.00;101747.69;4991829;28;20239;-84
2022/10/18 03:02:27;;;;;;;15.47;13.37;;;;;;;16.14;100.00;101744.91;4984541;28;20220;-83
2022/10/18 03:04:53;;;;;;;17.83;14.37;;;;;;;16.12;100.00;101747.69;4990515;28;20576;-85
2022/10/18 03:07:20;;;;;;;18.50;14.90;;;;;;;16.13;100.00;101749.41;4999513;28;20232;-83
2022/10/18 03:09:48;;;;;;;18.07;14.73;;;;;;;16.12;100.00;101746.84;4994746;28;20233;-83
2022/10/18 03:12:14;;;;;;;15.93;13.67;;;;;;;16.11;100.00;101745.13;5000325;28;20205;-83
2022/10/18 03:14:40;;;;;;;17.27;15.23;;;;;;;16.11;100.00;101747.81;4991882;28;20209;-83
2022/10/18 03:17:07;;;;;;;17.93;15.47;;;;;;;16.11;100.00;101758.56;4995938;28;20194;-83
2022/10/18 03:19:34;;;;;;;17.20;15.23;;;;;;;16.11;100.00;101753.19;5001612;28;20761;-83
2022/10/18 03:22:00;;;;;;;19.07;15.57;;;;;;;16.10;100.00;101748.78;4995767;28;20202;-85
2022/10/18 03:24:26;;;;;;;21.03;15.87;;;;;;;16.10;100.00;101738.91;5000095;28;20237;-85
2022/10/18 03:26:54;;;;;;;21.80;15.67;;;;;;;16.08;100.00;101743.50;4994384;28;20655;-84
2022/10/18 03:29:21;;;;;;;16.80;15.03;;;;;;;16.06;100.00;101741.91;4994903;28;20226;-85
2022/10/18 03:31:47;;;;;;;17.00;14.73;;;;;;;16.04;100.00;101738.44;4997869;28;20656;-84
2022/10/18 03:34:14;;;;;;;18.27;15.33;;;;;;;16.01;100.00;101738.66;4996861;28;20870;-84
2022/10/18 03:36:41;;;;;;;17.10;15.30;;;;;;;15.97;100.00;101738.84;4997760;28;20209;-83
2022/10/18 03:39:07;;;;;;;21.83;15.93;;;;;;;15.97;100.00;101738.00;4992583;28;20205;-83
2022/10/18 03:41:34;;;;;;;18.43;15.23;;;;;;;15.95;100.00;101735.41;4990780;28;20622;-83
2022/10/18 03:44:02;;;;;;;19.67;15.73;;;;;;;15.94;100.00;101733.69;4995580;28;20576;-84
2022/10/18 03:46:28;;;;;;;17.63;15.13;;;;;;;15.93;100.00;101723.94;4995445;28;20233;-83
2022/10/18 03:48:54;;;;;;;17.83;15.77;;;;;;;15.92;100.00;101729.41;4996441;28;20211;-84
2022/10/18 03:51:21;;;;;;;16.87;15.10;;;;;;;15.90;100.00;101737.56;4984661;28;20229;-83
2022/10/18 03:53:47;;;;;;;18.80;15.43;;;;;;;15.91;100.00;101733.06;4992775;28;20205;-84
2022/10/18 03:56:14;;;;;;;20.27;15.87;;;;;;;15.89;100.00;101719.72;4994357;28;20677;-83
2022/10/18 03:58:40;;;;;;;22.63;16.40;;;;;;;15.87;100.00;101721.66;5000624;28;20208;-83
2022/10/18 04:01:08;;;;;;;20.13;17.10;;;;;;;15.87;100.00;101710.06;4999292;28;20241;-84
2022/10/18 04:03:34;;;;;;;22.37;16.97;;;;;;;15.85;100.00;101712.84;4995708;28;20697;-83
2022/10/18 04:06:02;;;;;;;18.73;16.37;;;;;;;15.84;100.00;101716.50;4996114;28;20558;-83
2022/10/18 04:08:29;;;;;;;19.87;16.13;;;;;;;15.82;100.00;101718.41;4995653;28;20332;-85
2022/10/18 04:10:55;;;;;;;18.50;15.37;;;;;;;15.79;100.00;101715.94;5004305;28;20233;-82
2022/10/18 04:13:21;;;;;;;19.73;15.47;;;;;;;15.76;100.00;101726.91;4988540;28;20205;-83
2022/10/18 04:15:48;;;;;;;19.60;15.50;;;;;;;15.74;100.00;101728.84;4993470;28;20213;-83
2022/10/18 04:18:16;;;;;;;17.70;15.57;;;;;;;15.72;100.00;101730.78;4988772;28;20209;-83
2022/10/18 04:20:42;;;;;;;19.73;16.23;;;;;;;15.68;100.00;101713.13;4991567;28;20234;-83
2022/10/18 04:23:08;;;;;;;18.43;14.63;;;;;;;15.68;100.00;101710.44;4990024;28;20213;-83
2022/10/18 04:25:35;;;;;;;19.00;14.13;;;;;;;15.66;100.00;101717.75;4994047;28;20211;-83
2022/10/18 04:28:03;;;;;;;20.73;15.87;;;;;;;15.63;100.00;101716.13;4992423;28;20236;-82
2022/10/18 04:30:29;;;;;;;18.87;14.80;;;;;;;15.65;100.00;101729.44;4997312;28;20622;-84
2022/10/18 04:32:56;;;;;;;21.43;16.53;;;;;;;15.65;100.00;101725.91;4993736;28;20212;-83
2022/10/18 04:35:24;;;;;;;22.90;17.17;;;;;;;15.65;100.00;101732.13;4996349;28;20205;-83
2022/10/18 04:37:51;;;;;;;25.40;18.27;;;;;;;15.66;100.00;101735.69;4994675;28;20598;-83
2022/10/18 04:40:18;;;;;;;17.97;15.70;;;;;;;15.66;100.00;101735.69;5000959;28;20224;-83
2022/10/18 04:42:45;;;;;;;18.37;15.83;;;;;;;15.66;100.00;101738.38;4987876;28;20222;-83
2022/10/18 04:45:11;;;;;;;21.13;17.13;;;;;;;15.66;100.00;101730.31;4991242;28;20210;-82
2022/10/18 04:47:38;;;;;;;17.83;15.53;;;;;;;15.66;100.00;101733.00;4994306;28;20239;-82
2022/10/18 04:50:05;;;;;;;17.97;14.77;;;;;;;15.64;100.00;101730.41;4995333;28;20229;-83
2022/10/18 04:52:33;;;;;;;19.13;15.80;;;;;;;15.60;100.00;101721.69;4997753;28;20210;-82
2022/10/18 04:54:59;;;;;;;19.17;14.80;;;;;;;15.58;100.00;101729.03;4998775;28;20212;-83
2022/10/18 04:57:26;;;;;;;17.47;15.10;;;;;;;15.57;100.00;101727.31;4986873;28;20214;-83
2022/10/18 04:59:52;;;;;;;17.57;14.67;;;;;;;15.58;100.00;101722.78;4996018;28;20236;-83
2022/10/18 05:02:19;;;;;;;18.17;15.53;;;;;;;15.57;100.00;101729.13;4992045;28;20207;-83
2022/10/18 05:04:45;;;;;;;17.47;14.50;;;;;;;15.57;100.00;101729.13;4984867;28;20209;-83
2022/10/18 05:07:12;;;;;;;16.53;14.70;;;;;;;15.56;100.00;101714.84;4988759;28;20235;-83
2022/10/18 05:09:39;;;;;;;20.43;14.63;;;;;;;15.56;100.00;101719.34;4995226;28;20234;-83
2022/10/18 05:12:06;;;;;;;19.33;14.97;;;;;;;15.56;100.00;101727.41;4989268;28;20604;-83
2022/10/18 05:14:32;;;;;;;15.67;13.27;;;;;;;15.58;100.00;101736.22;4993407;28;20710;-83
2022/10/18 05:16:59;;;;;;;18.97;16.00;;;;;;;15.57;100.00;101740.72;4986868;28;20543;-83
2022/10/18 05:19:25;;;;;;;20.13;15.20;;;;;;;15.57;100.00;101738.03;4994632;28;20602;-83
2022/10/18 05:21:52;;;;;;;18.70;14.83;;;;;;;15.55;100.00;101737.28;4991350;28;20661;-83
2022/10/18 05:24:18;;;;;;;19.07;15.57;;;;;;;15.56;100.00;101732.78;4998423;28;20308;-82
2022/10/18 05:26:46;;;;;;;19.23;15.73;;;;;;;15.55;100.00;101737.28;4990225;28;20212;-83
2022/10/18 05:29:13;;;;;;;21.97;16.50;;;;;;;15.55;100.00;101739.97;5001751;28;20219;-83
2022/10/18 05:31:39;;;;;;;21.60;17.63;;;;;;;15.54;100.00;101743.56;4987025;28;20220;-83
2022/10/18 05:34:06;;;;;;;20.40;16.47;;;;;;;15.54;100.00;101745.41;4995262;28;20208;-83
2022/10/18 05:36:32;;;;;;;21.30;17.30;;;;;;;15.53;100.00;101747.22;4994973;28;20214;-82
2022/10/18 05:38:59;;;;;;;20.23;15.87;;;;;;;15.51;100.00;101754.53;4999432;28;20212;-83
2022/10/18 05:41:25;;;;;;;19.03;15.23;;;;;;;15.50;100.00;101751.94;4992361;28;20220;-82
2022/10/18 05:43:53;;;;;;;18.57;14.37;;;;;;;15.47;100.00;101758.34;5001825;28;20296;-83
2022/10/18 05:46:19;;;;;;;15.77;13.97;;;;;;;15.45;100.00;101759.41;5003690;28;20211;-82
2022/10/18 05:48:50;;;;;;;18.70;15.47;;;;;;;15.42;100.00;101760.47;4995648;28;20230;-83
2022/10/18 05:51:16;;;;;;;18.03;15.20;;;;;;;15.42;100.00;101755.13;4988989;28;20267;-83
2022/10/18 05:53:43;;;;;;;17.20;15.37;;;;;;;15.41;100.00;101765.94;4988820;28;20213;-82
2022/10/18 05:56:11;;;;;;;17.93;15.13;;;;;;;15.39;100.00;101766.06;4989494;28;20551;-82
2022/10/18 05:58:38;;;;;;;19.93;16.57;;;;;;;15.39;100.00;101762.53;4982712;28;20311;-82
2022/10/18 06:01:06;;;;;;;18.57;16.13;;;;;;;15.40;100.00;101777.69;4982310;28;20243;-82
2022/10/18 06:03:33;;;;;;;21.37;15.50;;;;;;;15.40;100.00;101775.00;4982106;28;20214;-84
2022/10/18 06:06:00;;;;;;;22.07;17.17;;;;;;;15.40;100.00;101775.84;4985866;28;20494;-83
2022/10/18 06:08:27;;;;;;;23.07;15.40;;;;;;;15.38;100.00;101776.91;4988908;28;20235;-82
2022/10/18 06:10:53;;;;;;;23.03;16.37;;;;;;;15.36;100.00;101781.53;4990949;28;20241;-83
2022/10/18 06:13:20;;;;;;;19.23;16.57;;;;;;;15.35;100.00;101779.78;4990310;28;20210;-83
2022/10/18 06:15:46;;;;;;;21.53;17.07;;;;;;;15.34;100.00;101776.25;4987235;28;20209;-81
2022/10/18 06:18:14;;;;;;;24.07;17.60;;;;;;;15.32;100.00;101779.97;4985242;28;20207;-83
2022/10/18 06:20:40;;;;;;;23.43;17.60;;;;;;;15.32;100.00;101782.66;4987421;28;20237;-83
2022/10/18 06:23:07;;;;;;;24.07;16.67;;;;;;;15.33;100.00;101787.94;4984509;28;20210;-82
2022/10/18 06:25:33;;;;;;;26.23;17.30;;;;;;;15.33;100.00;101784.41;4988559;28;20220;-82
2022/10/18 06:28:00;;;;;;;20.63;17.03;;;;;;;15.35;100.00;101782.47;4983145;28;20235;-82
2022/10/18 06:30:26;;;;;;;21.10;16.63;;;;;;;15.36;100.00;101785.06;4985499;28;20232;-82
2022/10/18 06:32:53;;;;;;;21.93;17.60;;;;;;;15.36;100.00;101779.69;4987983;28;20226;-83
2022/10/18 06:35:20;;;;;;;22.43;16.57;;;;;;;15.38;100.00;101783.16;4988275;28;20206;-83
2022/10/18 06:37:47;;;;;;;21.63;16.83;;;;;;;15.38;100.00;101787.66;4985761;28;20206;-83
2022/10/18 06:40:13;;;;;;;22.87;17.97;;;;;;;15.39;100.00;101784.00;4980467;28;20713;-82
2022/10/18 06:42:41;;;;;;;22.07;17.57;;;;;;;15.40;100.00;101785.72;4984241;28;20213;-83
2022/10/18 06:45:08;;;;;;;25.10;17.13;;;;;;;15.41;100.00;101774.00;4985188;28;20212;-82
2022/10/18 06:47:35;;;;;;;25.00;17.83;;;;;;;15.42;100.00;101781.09;4981463;28;20235;-82
2022/10/18 06:50:01;;;;;;;22.33;16.87;;;;;;;15.41;100.00;101785.59;4982228;28;20606;-82
2022/10/18 06:52:29;;;;;;;21.73;16.60;;;;;;;15.43;100.00;101788.19;4988287;28;20320;-83
2022/10/18 06:54:55;;;;;;;24.47;17.83;;;;;;;15.42;100.00;101799.88;4987163;28;20214;-84
2022/10/18 06:57:22;;;;;;;22.63;18.03;;;;;;;15.40;100.00;101794.66;4987110;28;20212;-82
2022/10/18 06:59:50;;;;;;;24.40;17.70;;;;;;;15.39;100.00;101802.78;4983369;28;20247;-84
2022/10/18 07:02:17;;;;;;;19.33;17.07;;;;;;;15.38;100.00;101804.63;4985961;28;20214;-83
2022/10/18 07:04:44;;;;;;;22.17;17.40;;;;;;;15.36;100.00;101809.22;4981489;28;20854;-83
2022/10/18 07:07:10;;;;;;;21.43;16.90;;;;;;;15.35;100.00;101798.59;4986615;28;20221;-83
2022/10/18 07:09:38;;;;;;;24.40;18.60;;;;;;;15.34;100.00;101802.22;4985849;28;20599;-84
2022/10/18 07:12:05;;;;;;;27.57;19.77;;;;;;;15.34;100.00;101802.22;4982753;28;20211;-82
2022/10/18 07:14:31;;;;;;;28.40;20.00;;;;;;;15.34;100.00;101803.09;4983541;28;20217;-80
2022/10/18 07:16:59;;;;;;;28.30;19.90;;;;;;;15.37;100.00;101802.03;4986183;28;20205;-81
2022/10/18 07:19:25;;;;;;;33.70;21.17;;;;;;;15.38;100.00;101798.38;4991076;28;20224;-81
2022/10/18 07:21:52;;;;;;;29.43;19.60;;;;;;;15.39;100.00;101800.97;4979820;28;20719;-83
2022/10/18 07:24:18;;;;;;;25.63;19.33;;;;;;;15.40;100.00;101810.75;4986095;28;20205;-82
2022/10/18 07:26:46;;;;;;;26.00;19.37;;;;;;;15.42;100.00;101807.94;4988242;28;20212;-82
2022/10/18 07:29:13;;;;;;;26.87;19.20;;;;;;;15.42;100.00;101810.63;4986136;28;20723;-82
2022/10/18 07:31:39;;;;;;;28.50;19.60;;;;;;;15.42;100.00;101803.44;4982594;28;20618;-82
2022/10/18 07:34:07;;;;;;;28.90;19.33;;;;;;;15.43;100.00;101812.34;4986243;28;20202;-82
2022/10/18 07:36:34;;;;;;;25.20;18.70;;;;;;;15.43;100.00;101810.53;4989441;28;20856;-82
2022/10/18 07:39:00;;;;;;;25.33;19.50;;;;;;;15.44;100.00;101809.56;4984026;28;20209;-82
2022/10/18 07:41:27;;;;;;;26.30;19.03;;;;;;;15.45;100.00;101813.97;4986656;28;20202;-82
2022/10/18 07:43:55;;;;;;;26.60;20.27;;;;;;;15.48;100.00;101815.59;4990325;28;20325;-82
2022/10/18 07:46:22;;;;;;;30.97;21.27;;;;;;;15.47;100.00;101809.38;4986786;28;20216;-83
2022/10/18 07:48:49;;;;;;;29.90;21.63;;;;;;;15.49;100.00;101815.50;4987302;28;20252;-82
2022/10/18 07:51:16;;;;;;;26.10;19.40;;;;;;;15.51;100.00;101810.91;4987734;28;20229;-82
2022/10/18 07:53:43;;;;;;;30.57;20.63;;;;;;;15.53;100.00;101818.84;4988492;28;20217;-83
2022/10/18 07:56:14;;;;;;;27.37;19.77;;;;;;;15.55;100.00;101809.78;4989463;28;20210;-82
2022/10/18 07:58:42;;;;;;;33.40;21.23;;;;;;;15.56;100.00;101810.63;4982731;28;20193;-83
2022/10/18 08:01:10;;;;;;;27.40;20.03;;;;;;;15.58;100.00;101800.66;4983993;28;20247;-84
2022/10/18 08:03:37;;;;;;;33.60;20.93;;;;;;;15.58;100.00;101812.25;4986651;28;20211;-83
2022/10/18 08:06:04;;;;;;;31.93;20.13;;;;;;;15.60;100.00;101804.06;4982937;28;20219;-82
2022/10/18 08:08:31;;;;;;;29.80;21.43;;;;;;;15.61;100.00;101809.34;4987054;28;20236;-84
2022/10/18 08:11:03;;;;;;;33.77;21.20;;;;;;;15.63;100.00;101807.44;4983229;28;20228;-82
2022/10/18 08:13:29;;;;;;;30.83;21.53;;;;;;;15.65;100.00;101811.84;4987437;28;20197;-82
2022/10/18 08:15:59;;;;;;;32.63;22.93;;;;;;;15.68;100.00;101804.44;4979887;28;20218;-82
2022/10/18 08:18:27;;;;;;;33.53;21.40;;;;;;;15.71;100.00;101811.44;4985370;28;20208;-82
2022/10/18 08:20:54;;;;;;;33.27;20.63;;;;;;;15.74;100.00;101808.56;4984125;28;20227;-82
2022/10/18 08:23:20;;;;;;;31.90;21.00;;;;;;;15.78;100.00;101807.38;4983460;28;20215;-82
2022/10/18 08:25:46;;;;;;;28.30;19.50;;;;;;;15.80;100.00;101803.63;4984050;28;20211;-82
2022/10/18 08:28:13;;;;;;;32.50;21.60;;;;;;;15.84;100.00;101794.41;4985977;28;20233;-82
2022/10/18 08:30:40;;;;;;;31.23;21.43;;;;;;;15.88;100.00;101793.25;4984193;28;20265;-82
2022/10/18 08:33:06;;;;;;;32.17;20.10;;;;;;;15.91;100.00;101809.16;4983523;28;20213;-82
2022/10/18 08:35:34;;;;;;;31.60;21.57;;;;;;;15.95;100.00;101809.78;4990845;28;20555;-83
2022/10/18 08:38:01;;;;;;;32.73;20.77;;;;;;;16.02;100.00;101815.63;4990274;28;20713;-83
2022/10/18 08:40:29;;;;;;;34.10;21.57;;;;;;;16.07;100.00;101808.97;4983463;28;20232;-84
2022/10/18 08:43:06;;;;;;;36.80;22.00;;;;;;;16.13;100.00;101807.69;4986516;28;20209;-83
2022/10/18 08:45:36;;;;;;;37.00;22.17;;;;;;;16.16;100.00;101810.16;4992729;28;20208;-84
2022/10/18 08:48:05;;;;;;;34.10;21.07;;;;;;;16.19;100.00;101809.94;4989873;28;20256;-81
2022/10/18 08:50:37;;;;;;;32.30;21.47;;;;;;;16.21;100.00;101808.03;4981326;28;20684;-81
2022/10/18 08:53:13;;;;;;;37.87;21.53;;;;;;;16.25;100.00;101829.22;4989758;28;20202;-82
2022/10/18 08:55:45;;;;;;;31.73;19.77;;;;;;;16.28;100.00;101820.94;4990812;28;20209;-82
2022/10/18 08:58:17;;;;;;;33.07;21.07;;;;;;;16.30;100.00;101828.91;4986792;28;20205;-82
2022/10/18 09:00:54;;;;;;;29.67;19.87;;;;;;;16.32;100.00;101825.13;4985533;28;20319;-82
2022/10/18 09:03:31;;;;;;;28.33;20.20;;;;;;;16.36;100.00;101830.31;4983544;28;20218;-81
2022/10/18 09:06:09;;;;;;;31.03;19.47;;;;;;;16.39;100.00;101830.09;4985717;28;20236;-81
2022/10/18 09:08:56;;;;;;;27.77;20.13;;;;;;;16.44;100.00;101827.97;4982654;28;20222;-81
2022/10/18 09:11:35;;;;;;;29.53;20.80;;;;;;;16.46;100.00;101837.66;4984589;28;20232;-82
2022/10/18 09:14:34;;;;;;;28.57;19.33;;;;;;;16.50;100.00;101839.13;4985345;28;20666;-82
2022/10/18 09:17:07;;;;;;;27.87;17.87;;;;;;;16.51;100.00;101845.38;4975431;28;20213;-81
2022/10/18 09:19:53;;;;;;;25.73;19.23;;;;;;;16.55;100.00;101846.88;4983692;28;20230;-81
2022/10/18 09:22:41;;;;;;;31.73;20.07;;;;;;;16.58;100.00;101833.22;4985375;28;20265;-81
2022/10/18 09:25:17;;;;;;;32.47;21.77;;;;;;;16.58;100.00;101828.72;4975979;28;20209;-81
2022/10/18 09:27:52;;;;;;;27.97;19.97;;;;;;;16.60;100.00;101834.00;4981714;28;20202;-81
2022/10/18 09:30:33;;;;;;;27.63;20.63;;;;;;;16.61;100.00;101843.78;4975340;28;20252;-82
2022/10/18 09:33:09;;;;;;;30.00;20.43;;;;;;;16.62;100.00;101843.69;4977908;28;20205;-82
2022/10/18 09:35:43;;;;;;;35.33;21.13;;;;;;;16.67;100.00;101848.75;4976784;28;20672;-82
2022/10/18 09:38:14;;;;;;;31.53;21.23;;;;;;;16.67;100.00;101857.69;4979375;28;20297;-82
2022/10/18 09:40:51;;;;;;;27.33;18.47;;;;;;;16.69;100.00;101856.72;4973629;28;20236;-81
2022/10/18 09:43:21;;;;;;;22.90;16.80;;;;;;;16.69;100.00;101854.03;4984283;28;20265;-82
2022/10/18 09:45:48;;;;;;;18.67;15.97;;;;;;;16.70;100.00;101855.75;4981409;28;20204;-82
2022/10/18 09:48:20;;;;;;;20.60;15.73;;;;;;;16.71;100.00;101854.78;4983188;28;20674;-83
2022/10/18 09:50:54;;;;;;;18.30;14.90;;;;;;;16.74;100.00;101862.63;4980984;28;20222;-83
2022/10/18 09:53:32;;;;;;;22.90;16.07;;;;;;;16.76;100.00;101849.94;4990265;28;20216;-81
2022/10/18 09:56:02;;;;;;;18.20;14.63;;;;;;;16.80;100.00;101846.06;4979152;28;20647;-82
2022/10/18 09:58:40;;;;;;;18.33;14.37;;;;;;;16.80;100.00;101859.53;4978467;28;20220;-82
2022/10/18 10:01:07;;;;;;;17.20;14.07;;;;;;;16.80;100.00;101856.84;4980807;28;20231;-81
2022/10/18 10:03:34;;;;;;;21.23;16.20;;;;;;;16.83;100.00;101864.69;4979516;28;20209;-83
2022/10/18 10:06:02;;;;;;;20.67;15.63;;;;;;;16.87;100.00;101858.09;4978332;28;20211;-82
2022/10/18 10:08:34;;;;;;;19.53;16.13;;;;;;;16.93;100.00;101863.06;4978828;28;20295;-82
2022/10/18 10:11:00;;;;;;;22.77;16.47;;;;;;;16.96;100.00;101866.41;4982726;28;20227;-81
2022/10/18 10:13:27;;;;;;;28.30;16.97;;;;;;;17.00;100.00;101861.69;4986573;28;20215;-81
2022/10/18 10:15:55;;;;;;;19.93;17.37;;;;;;;17.05;100.00;101864.00;4985980;28;20207;-81
2022/10/18 10:18:24;;;;;;;22.87;14.80;;;;;;;17.06;100.00;101871.97;4988454;28;20213;-82
2022/10/18 10:20:53;;;;;;;18.77;15.17;;;;;;;17.05;100.00;101872.94;4984989;28;20235;-82
2022/10/18 10:23:24;;;;;;;17.87;14.77;;;;;;;17.06;100.00;101869.28;4980929;28;20426;-82
2022/10/18 10:25:54;;;;;;;18.07;14.07;;;;;;;17.09;100.00;101865.53;4980863;28;20204;-82
2022/10/18 10:28:23;;;;;;;19.30;14.80;;;;;;;17.14;100.00;101866.06;4985973;28;20209;-82
2022/10/18 10:30:49;;;;;;;18.93;14.50;;;;;;;17.19;100.00;101867.47;4983736;28;20600;-82
2022/10/18 10:33:32;;;;;;;18.27;14.00;;;;;;;17.22;100.00;101869.91;4980207;28;20208;-82
2022/10/18 10:36:00;;;;;;;22.37;15.63;;;;;;;17.27;100.00;101867.75;4983250;28;20210;-81
2022/10/18 10:38:28;;;;;;;21.20;14.93;;;;;;;17.32;100.00;101868.31;4981603;28;20209;-81
2022/10/18 10:40:57;;;;;;;18.23;14.30;;;;;;;17.35;100.00;101862.69;4983702;28;20233;-82
2022/10/18 10:43:27;;;;;;;17.80;14.27;;;;;;;17.35;99.81;101859.13;4985312;28;20209;-82
2022/10/18 10:46:06;;;;;;;16.60;14.27;;;;;;;17.34;99.42;101866.34;4978873;28;20209;-81
2022/10/18 10:48:39;;;;;;;19.03;14.50;;;;;;;17.35;98.89;101862.69;4983276;28;20212;-81
2022/10/18 10:51:07;;;;;;;18.97;15.23;;;;;;;17.33;98.26;101867.31;4983285;28;20717;-82
2022/10/18 10:53:43;;;;;;;22.87;15.73;;;;;;;17.32;97.86;101862.06;4983177;28;20211;-81
2022/10/18 10:56:27;;;;;;;17.83;15.23;;;;;;;17.32;97.74;101862.06;4984614;28;20216;-82
2022/10/18 10:58:56;;;;;;;14.93;13.20;;;;;;;17.31;97.65;101861.19;4983885;28;20915;-82
2022/10/18 11:01:26;;;;;;;15.70;12.00;;;;;;;17.33;97.32;101864.63;4987639;28;20733;-84
2022/10/18 11:03:55;;;;;;;13.67;11.23;;;;;;;17.34;96.90;101862.81;4989563;28;20220;-82
2022/10/18 11:07:03;;;;;;;16.87;11.83;;;;;;;17.34;96.61;101863.66;4984411;28;20205;-82
2022/10/18 11:09:51;;;;;;;16.90;10.93;;;;;;;17.39;96.55;101870.53;4964825;28;20602;-83
2022/10/18 11:12:27;;;;;;;14.07;10.67;;;;;;;17.44;96.53;101868.38;4991517;28;21456;-83
2022/10/18 11:15:04;;;;;;;18.43;11.77;;;;;;;17.47;96.26;101860.94;4983486;28;20205;-82